CYLW Airport Information

Runway Information
Runway 16 Length 8900 ft width 200 ft
Elevation 1421 ft Threshold 1200 ft Heading 175
Runway 34 Length 8900 ft Width 200 ft
Elevation 1370 ft Threshold 400 ft Heading 355
Airport Frequencies
Type A/G Name PACIFIC RD Frequency 126.7 MHZ
Type ATIS Name ATIS Frequency 127.5 MHZ
Type EMR Name EMR Frequency 122.675 MHZ
Type GND Name GND Frequency 121.7 MHZ
Type RCO Name PENTICTON Frequency 119.6 MHZ
Type TWR Name TWR Frequency 119.6 MHZ
Type VDF Name Frequency 119.6 MHZ
Airport Navaids
Type NDB Name Rutland Frequency 374 KHZ
Type NDB Name Kelowna Frequency 257 KHZ
Airport Weather Information & NOTAM
ADDS - METARS form results

(1425 UTC 24 June 2018)
 
METAR text: CYLW 241400Z AUTO 04003KT 9SM CLR 16/13 A3004 RMK SLP171 DENSITY ALT 1600FT
Conditions at: CYLW (KELOWNA APT , BC, CA) observed 1400 UTC 24 June 2018
Temperature: 16.0°C (61°F)
Dewpoint: 13.0°C (55°F) [RH = 82%]
Pressure (altimeter): 30.04 inches Hg (1017.4 mb)
[Sea-level pressure: 1017.1 mb]
Winds: from the NE (40 degrees) at 3 MPH (3 knots; 1.6 m/s)
Visibility: 9 miles (14 km)
Ceiling: at least 12,000 feet AGL
Clouds: sky clear below 12,000 feet AGL
Weather: no significant weather observed at this time